Time;durP1;ratioP1;P1;durP2;ratioP2;P2;SDS_P1;SDS_P2;PMS_P1;PMS_P2;Temp;Humidity;BMP_temperature;BMP_pressure;BME280_temperature;BME280_humidity;BME280_pressure;Samples;Min_cycle;Max_cycle;Signal;HPM_P1;HPM_P2
2023/07/23 00:00:22;;;;;;;7.10;2.53;;;15.50;99.90;;;;;;5095695;28;19912;-66
2023/07/23 00:02:48;;;;;;;4.87;3.20;;;15.50;99.90;;;;;;5095147;28;20046;-65
2023/07/23 00:05:14;;;;;;;8.70;3.33;;;15.50;99.90;;;;;;5080810;28;20012;-66
2023/07/23 00:07:39;;;;;;;8.10;2.97;;;15.50;99.90;;;;;;5094906;28;20028;-65
2023/07/23 00:10:05;;;;;;;5.23;3.23;;;15.50;99.90;;;;;;5087304;28;20335;-66
2023/07/23 00:12:31;;;;;;;7.68;3.03;;;15.50;99.90;;;;;;5076392;28;20034;-66
2023/07/23 00:14:57;;;;;;;6.13;2.63;;;15.40;99.90;;;;;;5093806;28;20028;-66
2023/07/23 00:17:22;;;;;;;6.00;3.30;;;15.50;99.90;;;;;;5082140;28;20029;-65
2023/07/23 00:19:48;;;;;;;5.90;3.50;;;15.50;99.90;;;;;;5091769;28;20327;-66
2023/07/23 00:22:14;;;;;;;4.67;2.50;;;15.40;99.90;;;;;;5094438;28;20035;-66
2023/07/23 00:24:39;;;;;;;6.17;2.70;;;15.50;99.90;;;;;;5084008;28;20032;-81
2023/07/23 00:27:05;;;;;;;5.27;2.93;;;15.50;99.90;;;;;;5072338;28;20433;-66
2023/07/23 00:29:31;;;;;;;6.53;3.10;;;15.50;99.90;;;;;;5089032;28;20025;-65
2023/07/23 00:31:56;;;;;;;9.50;3.37;;;15.50;99.90;;;;;;5085542;28;20028;-65
2023/07/23 00:34:23;;;;;;;7.23;3.40;;;15.50;99.90;;;;;;5091607;28;21201;-66
2023/07/23 00:36:48;;;;;;;5.18;2.75;;;15.50;99.90;;;;;;5084362;28;20453;-65
2023/07/23 00:39:14;;;;;;;7.00;2.57;;;15.50;99.90;;;;;;5087967;28;20035;-66
2023/07/23 00:41:40;;;;;;;6.90;2.70;;;15.50;99.90;;;;;;5094286;28;20411;-65
2023/07/23 00:44:05;;;;;;;5.57;2.97;;;15.50;99.90;;;;;;5075935;28;20034;-66
2023/07/23 00:46:31;;;;;;;9.33;2.83;;;15.50;99.90;;;;;;5076204;28;20349;-67
2023/07/23 00:49:01;;;;;;;9.20;3.03;;;15.50;99.90;;;;;;5094638;28;20074;-66
2023/07/23 00:51:30;;;;;;;5.10;3.03;;;15.50;99.90;;;;;;5079033;28;20138;-67
2023/07/23 00:53:56;;;;;;;7.28;2.97;;;15.50;99.90;;;;;;5094238;28;20024;-67
2023/07/23 00:56:22;;;;;;;5.57;3.27;;;15.60;99.90;;;;;;5094129;28;20069;-66
2023/07/23 00:58:48;;;;;;;5.57;3.53;;;15.50;99.90;;;;;;5094642;28;20051;-80
2023/07/23 01:01:14;;;;;;;12.23;3.28;;;15.50;99.90;;;;;;5094224;28;20036;-66
2023/07/23 01:03:39;;;;;;;6.03;2.60;;;15.50;99.90;;;;;;5088151;28;20049;-67
2023/07/23 01:06:07;;;;;;;4.87;2.73;;;15.50;99.90;;;;;;5091087;28;20055;-68
2023/07/23 01:08:34;;;;;;;7.00;3.20;;;15.50;99.90;;;;;;5077380;28;20082;-68
2023/07/23 01:11:01;;;;;;;6.43;3.03;;;15.50;99.90;;;;;;5096847;28;20028;-66
2023/07/23 01:13:28;;;;;;;5.93;2.80;;;15.60;99.90;;;;;;5092950;28;20453;-66
2023/07/23 01:15:54;;;;;;;10.55;3.22;;;15.60;99.90;;;;;;5094052;28;20052;-82
2023/07/23 01:18:20;;;;;;;7.35;3.28;;;15.60;99.90;;;;;;5094303;28;20112;-67
2023/07/23 01:20:46;;;;;;;4.25;2.95;;;15.60;99.90;;;;;;5088564;28;20093;-66
2023/07/23 01:23:12;;;;;;;7.87;2.80;;;15.70;99.90;;;;;;5086321;28;20318;-66
2023/07/23 01:25:37;;;;;;;4.80;2.63;;;15.70;99.90;;;;;;5093451;28;20032;-67
2023/07/23 01:28:03;;;;;;;4.50;2.90;;;15.70;99.90;;;;;;5087198;28;20035;-65
2023/07/23 01:30:29;;;;;;;10.10;2.80;;;15.70;99.90;;;;;;5073572;28;20033;-66
2023/07/23 01:32:56;;;;;;;6.73;3.17;;;15.70;99.90;;;;;;5077951;28;20099;-66
2023/07/23 01:35:21;;;;;;;;;;;15.70;99.90;;;;;;5082658;28;20024;-66
2023/07/23 01:37:49;;;;;;;5.77;3.23;;;15.70;99.90;;;;;;5092887;28;20196;-66
2023/07/23 01:40:15;;;;;;;6.28;3.50;;;15.70;99.90;;;;;;5086401;28;20024;-65
2023/07/23 01:42:45;;;;;;;5.03;3.40;;;15.60;99.90;;;;;;5097664;28;20021;-66
2023/07/23 01:45:13;;;;;;;5.22;2.95;;;15.60;99.90;;;;;;5096781;28;20035;-65
2023/07/23 01:47:39;;;;;;;5.80;3.25;;;15.70;99.90;;;;;;5087029;28;20025;-65
2023/07/23 01:50:05;;;;;;;6.73;3.50;;;15.60;99.90;;;;;;5083917;28;20091;-65
2023/07/23 01:52:31;;;;;;;12.40;3.55;;;15.60;99.90;;;;;;5097760;28;20044;-65
2023/07/23 01:54:56;;;;;;;5.77;3.73;;;15.60;99.90;;;;;;5096217;28;20433;-65
2023/07/23 01:57:22;;;;;;;5.87;3.87;;;15.60;99.90;;;;;;5096433;28;20027;-65
2023/07/23 01:59:48;;;;;;;7.63;3.97;;;15.60;99.90;;;;;;5094446;28;20532;-65
2023/07/23 02:02:13;;;;;;;8.70;3.97;;;15.60;99.90;;;;;;5085759;28;20020;-65
2023/07/23 02:04:39;;;;;;;11.40;3.80;;;15.60;99.90;;;;;;5088824;28;20902;-65
2023/07/23 02:07:05;;;;;;;5.60;3.37;;;15.60;99.90;;;;;;5096394;28;20361;-79
2023/07/23 02:09:31;;;;;;;6.27;3.33;;;15.60;99.90;;;;;;5096561;28;20060;-65
2023/07/23 02:11:56;;;;;;;5.57;3.20;;;15.60;99.90;;;;;;5097130;28;20028;-65
2023/07/23 02:14:22;;;;;;;6.77;3.73;;;15.60;99.90;;;;;;5096497;28;20326;-65
2023/07/23 02:16:47;;;;;;;5.93;3.87;;;15.60;99.90;;;;;;5096769;28;20036;-66
2023/07/23 02:19:13;;;;;;;9.20;4.27;;;15.50;99.90;;;;;;5097411;28;20047;-65
2023/07/23 02:21:39;;;;;;;9.63;3.43;;;15.50;99.90;;;;;;5097255;28;20063;-65
2023/07/23 02:24:05;;;;;;;5.20;2.87;;;15.60;99.90;;;;;;5095324;28;20099;-79
2023/07/23 02:26:31;;;;;;;;;;;15.60;99.90;;;;;;5097496;28;20032;-65
2023/07/23 02:28:57;;;;;;;8.43;3.03;;;15.60;99.90;;;;;;5096438;28;19908;-65
2023/07/23 02:31:23;;;;;;;5.90;3.50;;;15.60;99.90;;;;;;5073393;28;20096;-65
2023/07/23 02:33:49;;;;;;;8.50;4.03;;;15.60;99.90;;;;;;5090729;28;20485;-71
2023/07/23 02:36:14;;;;;;;8.80;3.67;;;15.60;99.90;;;;;;5095191;28;20031;-65
2023/07/23 02:38:40;;;;;;;9.33;3.33;;;15.60;99.90;;;;;;5089346;28;20029;-65
2023/07/23 02:41:07;;;;;;;6.23;3.90;;;15.60;99.90;;;;;;5089226;28;20075;-65
2023/07/23 02:43:33;;;;;;;6.57;3.92;;;15.60;99.90;;;;;;5094025;28;20115;-65
2023/07/23 02:45:58;;;;;;;6.37;3.50;;;15.60;99.90;;;;;;5096606;28;20103;-65
2023/07/23 02:48:24;;;;;;;6.07;3.83;;;15.60;99.90;;;;;;5095991;28;20027;-64
2023/07/23 02:50:53;;;;;;;7.17;3.90;;;15.60;99.90;;;;;;5095643;28;20031;-64
2023/07/23 02:53:19;;;;;;;7.88;3.58;;;15.60;99.90;;;;;;5086717;28;20052;-64
2023/07/23 02:55:45;;;;;;;7.20;3.50;;;15.60;99.90;;;;;;5096026;28;20039;-65
2023/07/23 02:58:10;;;;;;;12.57;4.07;;;15.60;99.90;;;;;;5096175;28;20422;-65
2023/07/23 03:00:39;;;;;;;12.50;4.00;;;15.50;99.90;;;;;;5095149;28;20051;-79
2023/07/23 03:03:08;;;;;;;5.30;3.33;;;15.50;99.90;;;;;;5077941;28;20399;-65
2023/07/23 03:05:37;;;;;;;9.05;4.47;;;15.50;99.90;;;;;;5095830;28;20076;-64
2023/07/23 03:08:03;;;;;;;9.18;4.00;;;15.50;99.90;;;;;;5095872;28;20048;-65
2023/07/23 03:10:30;;;;;;;9.88;4.68;;;15.50;99.90;;;;;;5094526;28;20032;-64
2023/07/23 03:12:55;;;;;;;7.15;4.38;;;15.50;99.90;;;;;;5096561;28;20040;-64
2023/07/23 03:15:22;;;;;;;10.97;4.50;;;15.40;99.90;;;;;;5095157;28;20038;-64
2023/07/23 03:17:50;;;;;;;7.47;4.90;;;15.40;99.90;;;;;;5096306;28;20035;-65
2023/07/23 03:20:16;;;;;;;10.77;4.15;;;15.40;99.90;;;;;;5094072;28;20130;-64
2023/07/23 03:22:41;;;;;;;11.90;4.37;;;15.40;99.90;;;;;;5096705;28;20036;-64
2023/07/23 03:25:07;;;;;;;8.33;5.17;;;15.40;99.90;;;;;;5095284;28;20020;-81
2023/07/23 03:27:33;;;;;;;6.13;3.73;;;15.30;99.90;;;;;;5095452;28;20314;-64
2023/07/23 03:29:59;;;;;;;8.87;4.50;;;15.40;99.90;;;;;;5095318;28;20418;-64
2023/07/23 03:32:24;;;;;;;7.10;4.60;;;15.30;99.90;;;;;;5094738;28;20020;-64
2023/07/23 03:34:50;;;;;;;8.93;5.00;;;15.30;99.90;;;;;;5096267;28;20024;-65
2023/07/23 03:37:16;;;;;;;8.90;5.10;;;15.30;99.90;;;;;;5095745;28;20034;-65
2023/07/23 03:39:42;;;;;;;9.13;4.78;;;15.30;99.90;;;;;;5088563;28;20020;-64
2023/07/23 03:42:07;;;;;;;9.20;4.47;;;15.30;99.90;;;;;;5093825;28;20331;-64
2023/07/23 03:44:33;;;;;;;10.87;5.30;;;15.30;99.90;;;;;;5096072;28;20333;-65
2023/07/23 03:47:19;;;;;;;9.30;5.27;;;15.30;99.90;;;;;;5095889;28;20024;-64
2023/07/23 03:49:46;;;;;;;10.35;5.50;;;15.30;99.90;;;;;;5066094;28;20048;-65
2023/07/23 03:52:12;;;;;;;9.05;4.90;;;15.30;99.90;;;;;;5092511;28;20043;-65
2023/07/23 03:54:39;;;;;;;15.00;7.32;;;15.30;99.90;;;;;;5077414;28;20415;-64
2023/07/23 03:57:05;;;;;;;12.30;6.55;;;15.20;99.90;;;;;;5095544;28;20378;-70
2023/07/23 03:59:39;;;;;;;12.43;6.65;;;15.20;99.90;;;;;;5092520;28;20409;-64
2023/07/23 04:02:06;;;;;;;15.15;7.00;;;15.20;99.90;;;;;;5099544;28;20036;-64
2023/07/23 04:04:33;;;;;;;14.40;6.30;;;15.20;99.90;;;;;;5091538;28;20665;-65
2023/07/23 04:06:58;;;;;;;;;;;15.20;99.90;;;;;;5094535;28;20043;-65
2023/07/23 04:09:24;;;;;;;9.27;5.22;;;15.20;99.90;;;;;;5091074;28;19909;-65
2023/07/23 04:11:50;;;;;;;12.07;5.93;;;15.20;99.90;;;;;;5095276;28;20043;-65
2023/07/23 04:14:16;;;;;;;8.27;4.77;;;15.20;99.90;;;;;;5095052;28;20056;-64
2023/07/23 04:16:41;;;;;;;10.93;5.20;;;15.20;99.90;;;;;;5094855;28;20303;-64
2023/07/23 04:19:07;;;;;;;10.47;5.30;;;15.20;99.90;;;;;;5092628;28;20428;-65
2023/07/23 04:21:33;;;;;;;10.33;5.27;;;15.20;99.90;;;;;;5095101;28;20024;-65
2023/07/23 04:24:00;;;;;;;9.90;5.43;;;15.20;99.90;;;;;;5095152;28;20111;-65
2023/07/23 04:26:28;;;;;;;11.35;5.07;;;15.20;99.90;;;;;;5093358;28;20031;-65
2023/07/23 04:28:54;;;;;;;11.48;5.53;;;15.20;99.90;;;;;;5093208;28;20414;-66
2023/07/23 04:31:19;;;;;;;11.23;5.40;;;15.20;99.90;;;;;;5094864;28;20035;-67
2023/07/23 04:33:46;;;;;;;9.37;4.93;;;15.20;99.90;;;;;;5093472;28;20031;-66
2023/07/23 04:36:13;;;;;;;9.25;4.43;;;15.30;99.90;;;;;;5094541;28;20376;-66
2023/07/23 04:38:39;;;;;;;11.60;5.50;;;15.20;99.90;;;;;;5092794;28;20040;-66
2023/07/23 04:41:05;;;;;;;8.95;5.05;;;15.30;99.90;;;;;;5094105;28;20097;-66
2023/07/23 04:43:32;;;;;;;5.85;3.83;;;15.30;99.90;;;;;;5093560;28;20131;-67
2023/07/23 04:45:58;;;;;;;6.80;4.13;;;15.30;99.90;;;;;;5094436;28;20095;-67
2023/07/23 04:48:24;;;;;;;10.17;5.20;;;15.40;99.90;;;;;;5093919;28;20384;-68
2023/07/23 04:51:00;;;;;;;11.98;4.40;;;15.40;99.90;;;;;;5090876;28;20016;-67
2023/07/23 04:53:26;;;;;;;9.75;5.05;;;15.40;99.90;;;;;;5084143;28;20433;-66
2023/07/23 04:55:57;;;;;;;8.67;4.83;;;15.40;99.90;;;;;;5093028;28;20040;-68
2023/07/23 04:58:23;;;;;;;10.10;4.65;;;15.40;99.90;;;;;;5093896;28;20039;-66
2023/07/23 05:00:50;;;;;;;7.25;4.25;;;15.50;99.90;;;;;;5092457;28;20308;-68
2023/07/23 05:03:16;;;;;;;11.63;4.60;;;15.50;99.90;;;;;;5092694;28;20036;-80
2023/07/23 05:05:46;;;;;;;6.83;3.57;;;15.50;99.90;;;;;;5092334;28;20119;-67
2023/07/23 05:08:12;;;;;;;7.45;3.95;;;15.60;99.90;;;;;;5093246;28;20024;-67
2023/07/23 05:10:38;;;;;;;8.90;4.03;;;15.60;99.90;;;;;;5090969;28;20055;-67
2023/07/23 05:13:04;;;;;;;8.30;3.60;;;15.70;99.90;;;;;;5090770;28;20326;-66
2023/07/23 05:15:30;;;;;;;10.03;3.30;;;15.70;99.90;;;;;;5095314;28;20035;-67
2023/07/23 05:17:55;;;;;;;11.70;4.40;;;15.70;99.90;;;;;;5097921;28;20365;-66
2023/07/23 05:20:21;;;;;;;7.67;3.60;;;15.70;99.90;;;;;;5094416;28;20036;-67
2023/07/23 05:22:47;;;;;;;9.43;4.27;;;15.70;99.90;;;;;;5093469;28;20028;-66
2023/07/23 05:25:13;;;;;;;9.17;4.80;;;15.70;99.90;;;;;;5096396;28;20036;-79
2023/07/23 05:27:38;;;;;;;12.07;4.27;;;15.80;99.90;;;;;;5095874;28;20407;-66
2023/07/23 05:30:05;;;;;;;10.03;4.20;;;15.80;99.90;;;;;;5082547;28;20322;-67
2023/07/23 05:32:31;;;;;;;8.80;3.95;;;15.80;99.90;;;;;;5088802;28;20339;-67
2023/07/23 05:34:57;;;;;;;7.07;4.07;;;15.80;99.90;;;;;;5086088;28;20078;-67
2023/07/23 05:37:26;;;;;;;8.33;3.80;;;15.80;99.90;;;;;;5093076;28;20024;-72
2023/07/23 05:39:53;;;;;;;7.38;4.32;;;15.90;99.90;;;;;;5089328;28;20427;-66
2023/07/23 05:42:19;;;;;;;11.75;4.32;;;15.90;99.90;;;;;;5093388;28;20325;-66
2023/07/23 05:44:45;;;;;;;14.38;3.97;;;15.90;99.90;;;;;;5078890;28;20445;-67
2023/07/23 05:47:11;;;;;;;9.83;4.00;;;15.90;99.90;;;;;;5093372;28;20056;-67
2023/07/23 05:49:36;;;;;;;8.80;3.13;;;15.90;99.90;;;;;;5096892;28;20036;-67
2023/07/23 05:52:02;;;;;;;5.70;3.87;;;16.00;99.90;;;;;;5097139;28;20431;-66
2023/07/23 05:54:31;;;;;;;8.87;4.07;;;16.00;99.90;;;;;;5092553;28;20028;-86
2023/07/23 05:56:56;;;;;;;8.82;4.20;;;16.00;99.90;;;;;;5084068;28;20032;-67
2023/07/23 05:59:22;;;;;;;10.77;4.23;;;16.00;99.90;;;;;;5083303;28;20029;-67
2023/07/23 06:01:49;;;;;;;6.17;3.73;;;16.00;99.90;;;;;;5085743;28;20029;-67
2023/07/23 06:04:14;;;;;;;7.85;3.70;;;16.00;99.90;;;;;;5088579;28;20069;-67
2023/07/23 06:06:40;;;;;;;5.87;3.70;;;16.00;99.90;;;;;;5089603;28;20028;-67
2023/07/23 06:09:06;;;;;;;11.03;3.87;;;16.00;99.90;;;;;;5090022;28;20024;-67
2023/07/23 06:11:32;;;;;;;9.20;4.57;;;16.00;99.90;;;;;;5086721;28;20119;-67
2023/07/23 06:13:58;;;;;;;10.70;4.60;;;16.00;99.90;;;;;;5084974;28;20026;-83
2023/07/23 06:16:24;;;;;;;;;;;16.00;99.90;;;;;;5092546;28;20432;-67
2023/07/23 06:18:50;;;;;;;7.15;3.53;;;15.90;99.90;;;;;;5088634;28;19908;-67
2023/07/23 06:21:15;;;;;;;9.33;3.97;;;15.90;99.90;;;;;;5095024;28;20020;-66
2023/07/23 06:23:41;;;;;;;6.67;3.70;;;15.80;99.90;;;;;;5095978;28;20066;-67
2023/07/23 06:26:07;;;;;;;8.87;4.53;;;15.80;99.90;;;;;;5095347;28;20500;-87
2023/07/23 06:28:32;;;;;;;11.00;3.83;;;15.80;99.90;;;;;;5074139;28;20039;-79
2023/07/23 06:30:58;;;;;;;9.67;4.70;;;15.80;99.90;;;;;;5087356;28;20027;-67
2023/07/23 06:33:24;;;;;;;10.53;3.83;;;15.80;99.90;;;;;;5084666;28;20024;-66
2023/07/23 06:35:50;;;;;;;7.13;3.63;;;15.90;99.90;;;;;;5087388;28;20036;-67
2023/07/23 06:38:16;;;;;;;5.73;3.60;;;15.80;99.90;;;;;;5089906;28;20029;-67
2023/07/23 06:40:52;;;;;;;8.88;4.38;;;15.80;99.90;;;;;;5090578;28;20033;-67
2023/07/23 06:43:19;;;;;;;9.82;3.55;;;15.90;99.90;;;;;;5087953;28;20020;-68
2023/07/23 06:45:46;;;;;;;6.70;3.22;;;15.90;99.90;;;;;;5084735;28;20013;-68
2023/07/23 06:48:12;;;;;;;9.32;4.20;;;15.90;99.90;;;;;;5084085;28;20131;-67
2023/07/23 06:50:38;;;;;;;7.18;3.67;;;15.90;99.90;;;;;;5090638;28;20024;-66
2023/07/23 06:53:04;;;;;;;7.87;4.60;;;15.90;99.90;;;;;;5092456;28;20048;-80
2023/07/23 06:55:35;;;;;;;11.77;4.03;;;15.90;99.90;;;;;;5084116;28;20017;-66
2023/07/23 06:58:01;;;;;;;8.43;3.90;;;15.90;99.90;;;;;;5090018;28;20040;-67
2023/07/23 07:00:27;;;;;;;7.43;3.90;;;15.90;99.90;;;;;;5086100;28;20031;-66
2023/07/23 07:02:52;;;;;;;8.50;4.10;;;15.80;99.90;;;;;;5086958;28;20384;-66
2023/07/23 07:05:18;;;;;;;6.57;3.73;;;15.80;99.90;;;;;;5085533;28;20028;-67
2023/07/23 07:07:44;;;;;;;7.50;3.77;;;15.90;99.90;;;;;;5088079;28;20031;-66
2023/07/23 07:10:10;;;;;;;7.17;4.00;;;15.90;99.90;;;;;;5080820;28;20107;-69
2023/07/23 07:12:35;;;;;;;7.50;3.50;;;15.90;99.90;;;;;;5082405;28;20407;-66
2023/07/23 07:15:01;;;;;;;10.23;4.20;;;15.90;99.90;;;;;;5087618;28;20343;-67
2023/07/23 07:17:27;;;;;;;9.87;4.50;;;15.90;99.90;;;;;;5086938;28;20362;-67
2023/07/23 07:19:53;;;;;;;10.00;4.60;;;15.90;99.90;;;;;;5089620;28;20093;-67
2023/07/23 07:22:18;;;;;;;7.67;4.00;;;15.90;99.90;;;;;;5081710;28;20710;-67
2023/07/23 07:24:44;;;;;;;8.20;4.27;;;16.00;99.90;;;;;;5084111;28;20103;-67
2023/07/23 07:27:10;;;;;;;9.13;4.07;;;16.00;99.90;;;;;;5086144;28;20016;-66
2023/07/23 07:29:39;;;;;;;7.05;3.80;;;16.00;99.90;;;;;;5083902;28;20048;-67
2023/07/23 07:32:06;;;;;;;7.03;3.92;;;15.90;99.90;;;;;;5085015;28;20032;-66
2023/07/23 07:34:32;;;;;;;9.98;4.20;;;16.00;99.90;;;;;;5084993;28;20035;-66
2023/07/23 07:36:57;;;;;;;7.90;4.13;;;16.00;99.90;;;;;;5066226;28;20032;-67
2023/07/23 07:39:23;;;;;;;8.73;4.00;;;16.00;99.90;;;;;;5077359;28;20020;-66
2023/07/23 07:41:49;;;;;;;7.83;3.50;;;16.00;99.90;;;;;;5090726;28;20461;-67
2023/07/23 07:44:14;;;;;;;8.53;4.07;;;16.00;99.90;;;;;;5092024;28;20103;-67
2023/07/23 07:46:40;;;;;;;9.77;4.07;;;16.00;99.90;;;;;;5093856;28;20024;-67
2023/07/23 07:49:06;;;;;;;5.40;3.60;;;16.00;99.90;;;;;;5091050;28;20020;-81
2023/07/23 07:51:32;;;;;;;10.63;4.20;;;16.10;99.90;;;;;;5087232;28;20028;-67
2023/07/23 07:53:57;;;;;;;9.03;3.93;;;16.10;99.90;;;;;;5093143;28;20032;-86
2023/07/23 07:56:23;;;;;;;6.00;3.47;;;16.20;99.90;;;;;;5089648;28;20411;-66
2023/07/23 07:58:49;;;;;;;8.97;4.00;;;16.20;99.90;;;;;;5089742;28;20176;-66
2023/07/23 08:01:15;;;;;;;9.48;4.15;;;16.20;99.90;;;;;;5084934;28;20163;-66
2023/07/23 08:03:42;;;;;;;9.20;4.13;;;16.30;99.90;;;;;;5086207;28;20031;-67
2023/07/23 08:06:08;;;;;;;12.20;4.53;;;16.30;99.90;;;;;;5085518;28;20031;-82
2023/07/23 08:08:37;;;;;;;11.75;3.72;;;16.40;99.90;;;;;;5088567;28;20031;-66
2023/07/23 08:11:06;;;;;;;8.77;4.40;;;16.40;99.90;;;;;;5090340;28;20031;-66
2023/07/23 08:13:34;;;;;;;5.97;3.88;;;16.50;99.90;;;;;;5077024;28;20028;-66
2023/07/23 08:16:01;;;;;;;8.45;4.50;;;16.60;99.90;;;;;;5094671;28;20107;-66
2023/07/23 08:18:27;;;;;;;6.70;3.83;;;16.60;99.90;;;;;;5086762;28;20032;-83
2023/07/23 08:20:57;;;;;;;7.67;4.23;;;16.60;99.90;;;;;;5093105;28;20032;-66
2023/07/23 08:23:25;;;;;;;7.78;4.60;;;16.50;99.90;;;;;;5094621;28;20024;-67
2023/07/23 08:25:55;;;;;;;6.45;3.78;;;16.60;99.90;;;;;;5085443;28;20462;-66
2023/07/23 08:28:23;;;;;;;6.43;3.63;;;16.50;99.90;;;;;;5090049;28;20026;-80
2023/07/23 08:30:49;;;;;;;7.93;3.70;;;16.50;99.90;;;;;;5086150;28;20020;-67
2023/07/23 08:33:17;;;;;;;8.13;4.05;;;16.50;99.90;;;;;;5091495;28;20101;-67
2023/07/23 08:35:43;;;;;;;6.15;3.70;;;16.60;99.90;;;;;;5093720;28;20036;-67
2023/07/23 08:38:10;;;;;;;4.37;2.87;;;16.50;99.90;;;;;;5090105;28;20032;-81
2023/07/23 08:40:43;;;;;;;9.13;3.90;;;16.60;99.90;;;;;;5087707;28;20028;-67
2023/07/23 08:43:37;;;;;;;10.50;3.40;;;16.60;99.90;;;;;;5071391;28;20349;-83
2023/07/23 08:46:25;;;;;;;7.07;3.70;;;16.60;99.90;;;;;;5090123;28;20024;-65
2023/07/23 08:48:54;;;;;;;10.82;4.00;;;16.60;99.90;;;;;;5093989;28;20032;-65
2023/07/23 08:51:23;;;;;;;7.45;3.85;;;16.60;99.90;;;;;;5094677;28;20032;-66
2023/07/23 08:53:50;;;;;;;8.15;3.92;;;16.60;99.90;;;;;;5092221;28;20047;-67
2023/07/23 08:56:17;;;;;;;7.47;3.92;;;16.60;99.90;;;;;;5092815;28;20429;-66
2023/07/23 08:58:44;;;;;;;4.97;3.33;;;16.60;99.90;;;;;;5092408;28;20418;-65
2023/07/23 09:01:13;;;;;;;6.75;3.83;;;16.60;99.90;;;;;;5093286;28;20180;-67
2023/07/23 09:03:39;;;;;;;6.55;3.45;;;16.60;99.90;;;;;;5093291;28;20028;-66
2023/07/23 09:06:05;;;;;;;5.77;3.40;;;16.70;99.90;;;;;;5075028;28;20024;-71
2023/07/23 09:08:33;;;;;;;6.30;3.87;;;16.70;99.90;;;;;;5087150;28;20023;-66
2023/07/23 09:10:58;;;;;;;11.15;3.60;;;16.70;99.90;;;;;;5084492;28;20433;-82
2023/07/23 09:13:33;;;;;;;5.83;3.93;;;16.70;99.90;;;;;;5089766;28;20107;-66
2023/07/23 09:15:59;;;;;;;6.65;3.38;;;16.70;99.90;;;;;;5091412;28;20035;-66
2023/07/23 09:18:24;;;;;;;8.50;4.17;;;16.80;99.90;;;;;;5090125;28;20020;-65
2023/07/23 09:20:50;;;;;;;6.17;4.17;;;16.80;99.90;;;;;;5087485;28;20048;-67
2023/07/23 09:23:16;;;;;;;7.60;4.13;;;16.80;99.90;;;;;;5086297;28;20020;-65
2023/07/23 09:25:43;;;;;;;10.60;4.30;;;16.80;99.90;;;;;;5091211;28;20051;-82
2023/07/23 09:28:23;;;;;;;8.25;4.22;;;16.90;99.90;;;;;;5088875;28;20083;-73
2023/07/23 09:30:56;;;;;;;9.57;3.95;;;16.90;99.90;;;;;;5088926;28;20027;-66
2023/07/23 09:33:27;;;;;;;6.18;3.78;;;17.00;99.90;;;;;;5091884;28;20043;-66
2023/07/23 09:36:02;;;;;;;7.43;4.20;;;17.00;99.90;;;;;;5089393;28;20311;-66
2023/07/23 09:38:28;;;;;;;6.30;3.75;;;17.00;99.90;;;;;;5071671;28;20020;-81
2023/07/23 09:40:54;;;;;;;6.18;3.72;;;17.10;99.90;;;;;;5090228;28;20020;-66
2023/07/23 09:43:21;;;;;;;7.23;4.33;;;17.10;99.90;;;;;;5092346;28;20153;-66
2023/07/23 09:45:47;;;;;;;8.35;4.25;;;17.10;99.90;;;;;;5091946;28;20031;-66
2023/07/23 09:48:17;;;;;;;6.47;3.67;;;17.10;99.90;;;;;;5092680;28;20099;-68
2023/07/23 09:50:44;;;;;;;6.47;3.60;;;17.20;99.90;;;;;;5074357;28;20020;-66
2023/07/23 09:53:10;;;;;;;6.32;4.18;;;17.20;99.90;;;;;;5051492;28;1183547;-66
2023/07/23 09:55:40;;;;;;;7.20;3.85;;;17.20;99.90;;;;;;5092711;28;20326;-85
2023/07/23 09:58:06;;;;;;;5.90;3.47;;;17.30;99.90;;;;;;5091499;28;20028;-79
2023/07/23 10:00:33;;;;;;;5.97;3.33;;;17.30;99.90;;;;;;5093391;28;20053;-65
2023/07/23 10:03:00;;;;;;;6.18;3.30;;;17.30;99.90;;;;;;5096189;28;20419;-79
2023/07/23 10:05:26;;;;;;;9.80;3.47;;;17.30;99.90;;;;;;5094165;28;20315;-65
2023/07/23 10:07:53;;;;;;;5.05;3.30;;;17.30;99.90;;;;;;5097294;28;20181;-66
2023/07/23 10:10:19;;;;;;;5.53;3.78;;;17.30;99.90;;;;;;5097763;28;20020;-66
2023/07/23 10:12:46;;;;;;;4.13;3.00;;;17.30;99.90;;;;;;5083637;28;20020;-67
2023/07/23 10:15:12;;;;;;;4.10;2.85;;;17.40;99.90;;;;;;5094086;28;20245;-65
2023/07/23 10:17:41;;;;;;;4.10;3.00;;;17.40;99.90;;;;;;5097417;28;20074;-66
2023/07/23 10:20:10;;;;;;;5.68;2.92;;;17.40;99.90;;;;;;5093930;28;20131;-84
2023/07/23 10:22:37;;;;;;;5.05;2.67;;;17.40;99.90;;;;;;5092873;28;20016;-67
2023/07/23 10:25:32;;;;;;;3.53;2.13;;;17.30;99.90;;;;;;5094018;28;20032;-65
2023/07/23 10:28:03;;;;;;;3.42;2.50;;;17.30;99.90;;;;;;5094327;28;20028;-67
2023/07/23 10:30:31;;;;;;;4.63;2.85;;;17.30;99.90;;;;;;5096893;28;20066;-66
2023/07/23 10:33:09;;;;;;;4.97;2.97;;;17.30;99.90;;;;;;5075170;28;20089;-85
2023/07/23 10:35:53;;;;;;;3.67;2.45;;;17.40;99.90;;;;;;5086468;28;20035;-67
2023/07/23 10:38:23;;;;;;;4.20;2.63;;;17.40;99.90;;;;;;5093513;28;20146;-84
2023/07/23 10:40:48;;;;;;;8.27;2.55;;;17.40;99.90;;;;;;5094273;28;20080;-67
2023/07/23 10:43:14;;;;;;;8.23;3.20;;;17.40;99.90;;;;;;5095320;28;20106;-67
2023/07/23 10:46:03;;;;;;;4.15;3.10;;;17.40;99.90;;;;;;5094881;28;20429;-79
2023/07/23 10:48:52;;;;;;;7.68;3.85;;;17.50;99.90;;;;;;5090549;28;20039;-66
2023/07/23 10:51:18;;;;;;;11.13;3.55;;;17.60;99.90;;;;;;5088546;28;20025;-66
2023/07/23 10:53:55;;;;;;;4.15;2.60;;;17.70;99.90;;;;;;5083641;28;20334;-67
2023/07/23 10:56:31;;;;;;;5.72;3.60;;;17.70;99.90;;;;;;5078219;28;20659;-66
2023/07/23 10:59:06;;;;;;;5.90;3.80;;;17.80;99.90;;;;;;5083599;28;20031;-67
2023/07/23 11:01:38;;;;;;;5.30;3.78;;;17.90;99.90;;;;;;5094258;28;20368;-65
2023/07/23 11:04:27;;;;;;;6.68;4.32;;;18.00;99.90;;;;;;5086339;28;20024;-66
2023/07/23 11:07:00;;;;;;;6.03;3.45;;;18.00;99.90;;;;;;5077964;28;20031;-67
2023/07/23 11:09:31;;;;;;;6.10;3.53;;;18.00;99.90;;;;;;5084097;28;20024;-66
2023/07/23 11:11:58;;;;;;;7.65;4.00;;;18.00;99.90;;;;;;5078959;28;20687;-67
2023/07/23 11:14:25;;;;;;;;;;;18.10;99.90;;;;;;5085133;28;20064;-66
2023/07/23 11:16:52;;;;;;;7.00;4.10;;;18.30;99.90;;;;;;5082869;28;19909;-66
2023/07/23 11:19:20;;;;;;;7.05;4.07;;;18.40;99.90;;;;;;5091121;28;20081;-66
2023/07/23 11:21:47;;;;;;;8.82;4.65;;;18.50;99.90;;;;;;5080470;28;20427;-67
2023/07/23 11:24:13;;;;;;;5.82;4.15;;;18.60;99.90;;;;;;5087399;28;20415;-67
2023/07/23 11:26:40;;;;;;;6.93;4.40;;;18.80;99.90;;;;;;5070892;28;20035;-66
2023/07/23 11:29:06;;;;;;;8.77;5.00;;;18.80;99.90;;;;;;5080761;28;20029;-66
2023/07/23 11:31:34;;;;;;;7.13;4.88;;;18.90;99.90;;;;;;5091926;28;20028;-66
2023/07/23 11:34:00;;;;;;;7.65;4.70;;;18.90;99.90;;;;;;5086581;28;20032;-65
2023/07/23 11:36:27;;;;;;;7.82;4.28;;;18.90;99.90;;;;;;5085767;28;20028;-66
2023/07/23 11:38:54;;;;;;;7.82;4.60;;;18.80;99.90;;;;;;5089564;28;20447;-66
2023/07/23 11:41:30;;;;;;;9.25;4.90;;;18.80;99.90;;;;;;5095483;28;20020;-66
2023/07/23 11:43:57;;;;;;;7.23;5.40;;;18.80;99.90;;;;;;5094347;28;20020;-87
2023/07/23 11:46:23;;;;;;;9.18;5.38;;;18.80;99.90;;;;;;5083228;28;20332;-73
2023/07/23 11:48:52;;;;;;;6.68;4.20;;;18.70;99.90;;;;;;5091560;28;20437;-66
2023/07/23 11:51:18;;;;;;;8.60;4.88;;;18.80;99.90;;;;;;5093089;28;20032;-67
2023/07/23 11:53:44;;;;;;;7.50;4.50;;;18.90;99.90;;;;;;5094627;28;20047;-67
2023/07/23 11:56:14;;;;;;;10.20;5.10;;;19.10;99.90;;;;;;5076440;28;20406;-69
2023/07/23 11:58:40;;;;;;;7.45;5.43;;;19.30;99.90;;;;;;5094997;28;20034;-67
2023/07/23 12:01:07;;;;;;;;;;;19.40;99.90;;;;;;5095177;28;20020;-67
2023/07/23 12:03:46;;;;;;;8.18;5.25;;;19.60;99.90;;;;;;5093055;28;19983;-84
2023/07/23 12:06:13;;;;;;;8.05;5.35;;;19.80;99.90;;;;;;5083649;28;20104;-67
2023/07/23 12:08:41;;;;;;;7.63;4.55;;;19.90;99.90;;;;;;5094526;28;20112;-83
2023/07/23 12:11:09;;;;;;;6.18;4.07;;;19.90;99.90;;;;;;5067819;28;20415;-67
2023/07/23 12:13:40;;;;;;;7.38;4.40;;;20.00;99.90;;;;;;5083562;28;20020;-66
2023/07/23 12:16:12;;;;;;;6.28;3.72;;;20.20;99.90;;;;;;5095392;28;20513;-67
2023/07/23 12:18:44;;;;;;;8.75;4.00;;;20.30;99.90;;;;;;5093189;28;20082;-79
2023/07/23 12:21:09;;;;;;;5.88;3.38;;;20.30;99.90;;;;;;5093043;28;20028;-66
2023/07/23 12:23:42;;;;;;;5.97;4.03;;;20.30;99.90;;;;;;5090522;28;20020;-82
2023/07/23 12:26:09;;;;;;;9.48;4.20;;;20.30;99.90;;;;;;5092229;28;21710;-66
2023/07/23 12:28:35;;;;;;;8.18;4.43;;;20.20;99.90;;;;;;5093094;28;20419;-80
2023/07/23 12:31:00;;;;;;;6.47;4.40;;;20.20;99.90;;;;;;5094445;28;20028;-66
2023/07/23 12:33:26;;;;;;;6.93;4.17;;;20.20;99.90;;;;;;5094055;28;20039;-81
2023/07/23 12:35:52;;;;;;;8.30;4.13;;;20.20;99.90;;;;;;5090706;28;20035;-67
2023/07/23 12:38:17;;;;;;;7.43;4.10;;;20.30;99.90;;;;;;5089487;28;20040;-66
2023/07/23 12:40:43;;;;;;;7.27;3.30;;;20.50;99.90;;;;;;5089870;28;20373;-67
2023/07/23 12:43:09;;;;;;;5.13;3.60;;;20.70;99.90;;;;;;5091926;28;20024;-67
2023/07/23 12:45:36;;;;;;;6.03;3.63;;;20.90;99.90;;;;;;5091095;28;20050;-67